Time;durP1;ratioP1;P1;durP2;ratioP2;P2;SDS_P1;SDS_P2;PMS_P1;PMS_P2;Temp;Humidity;BMP_temperature;BMP_pressure;BME280_temperature;BME280_humidity;BME280_pressure;Samples;Min_cycle;Max_cycle;Signal;HPM_P1;HPM_P2
2021/09/14 00:00:28;;;;;;;6.90;6.40;;;;;;;15.67;78.36;99527.50;5014476;28;20268;-83
2021/09/14 00:03:02;;;;;;;7.50;6.80;;;;;;;15.58;78.81;99522.81;5014034;28;20231;-84
2021/09/14 00:05:42;;;;;;;7.13;6.53;;;;;;;15.55;78.80;99523.31;5014218;28;20229;-84
2021/09/14 00:08:17;;;;;;;7.30;6.73;;;;;;;15.51;78.69;99517.59;4999039;28;20223;-85
2021/09/14 00:10:52;;;;;;;7.33;6.73;;;;;;;15.44;78.83;99508.88;5014125;28;20561;-80
2021/09/14 00:13:23;;;;;;;7.07;6.37;;;;;;;15.47;78.55;99516.44;5015566;28;20237;-87
2021/09/14 00:15:56;;;;;;;7.37;6.73;;;;;;;15.43;78.90;99509.94;5014515;28;20241;-82
2021/09/14 00:18:33;;;;;;;7.00;6.37;;;;;;;15.36;78.85;99510.13;4998856;28;20273;-89
2021/09/14 00:21:04;;;;;;;7.00;6.47;;;;;;;15.37;79.06;99519.84;5014416;28;20241;-81
2021/09/14 00:23:39;;;;;;;7.20;6.60;;;;;;;15.33;79.08;99510.63;4999054;28;20252;-85
2021/09/14 00:26:17;;;;;;;6.80;6.30;;;;;;;15.34;79.27;99512.28;5014067;28;20698;-81
2021/09/14 00:28:47;;;;;;;6.60;6.10;;;;;;;15.32;79.21;99508.19;5014390;28;20233;-86
2021/09/14 00:31:19;;;;;;;8.13;6.53;;;;;;;15.34;79.23;99514.16;5014072;28;20229;-81
2021/09/14 00:33:52;;;;;;;7.20;6.60;;;;;;;15.26;79.50;99510.00;4982997;28;20230;-86
2021/09/14 00:36:27;;;;;;;8.03;6.90;;;;;;;15.28;79.51;99515.16;4998101;28;20241;-81
2021/09/14 00:38:58;;;;;;;7.07;6.37;;;;;;;15.23;79.65;99509.69;4998752;28;20316;-82
2021/09/14 00:41:30;;;;;;;7.07;6.53;;;;;;;15.19;79.88;99517.50;4997820;28;20642;-81
2021/09/14 00:44:02;;;;;;;7.20;6.60;;;;;;;15.12;80.39;99514.16;4998317;28;20223;-84
2021/09/14 00:46:38;;;;;;;7.40;6.70;;;;;;;15.04;80.50;99506.50;5014911;28;20236;-81
2021/09/14 00:49:14;;;;;;;6.57;5.97;;;;;;;15.03;80.55;99520.22;4998238;28;20589;-85
2021/09/14 00:51:49;;;;;;;6.67;6.07;;;;;;;15.06;80.29;99525.16;4998705;28;20311;-88
2021/09/14 00:54:28;;;;;;;8.00;6.40;;;;;;;15.02;80.37;99519.44;5014691;28;20310;-86
2021/09/14 00:57:01;;;;;;;7.00;6.30;;;;;;;15.04;80.63;99516.47;4998185;28;20233;-88
2021/09/14 00:59:33;;;;;;;7.43;6.83;;;;;;;15.03;80.43;99512.97;4998318;28;20229;-81
2021/09/14 01:02:07;;;;;;;7.43;6.80;;;;;;;15.05;80.69;99513.53;5013416;28;20238;-87
2021/09/14 01:04:45;;;;;;;7.67;6.93;;;;;;;14.99;80.45;99509.97;4998274;28;20245;-88
2021/09/14 01:07:17;;;;;;;7.67;7.07;;;;;;;14.98;80.52;99508.31;5013477;28;20637;-80
2021/09/14 01:09:52;;;;;;;6.50;5.93;;;;;;;15.05;80.47;99510.03;5014655;28;20221;-81
2021/09/14 01:12:28;;;;;;;6.30;5.80;;;;;;;14.95;80.51;99503.44;5013436;28;20236;-87
2021/09/14 01:15:04;;;;;;;6.60;6.10;;;;;;;14.90;80.48;99499.84;5016689;28;20671;-84
2021/09/14 01:17:38;;;;;;;7.20;6.60;;;;;;;14.94;80.34;99509.88;5018766;28;20229;-84
2021/09/14 01:20:12;;;;;;;6.90;6.40;;;;;;;14.89;80.24;99501.72;5000853;28;20262;-81
2021/09/14 01:22:44;;;;;;;6.90;6.20;;;;;;;14.93;79.98;99513.66;5018366;28;20227;-85
2021/09/14 01:25:25;;;;;;;6.63;6.13;;;;;;;14.86;80.09;99514.91;5002140;28;20541;-84
2021/09/14 01:28:07;;;;;;;6.80;6.20;;;;;;;14.85;80.13;99524.88;4987002;28;20268;-87
2021/09/14 01:30:39;;;;;;;7.20;6.50;;;;;;;14.73;80.55;99505.31;5001409;28;20226;-82
2021/09/14 01:33:15;;;;;;;6.70;6.20;;;;;;;14.70;80.89;99508.50;5002021;28;20233;-86
2021/09/14 01:35:50;;;;;;;7.27;6.67;;;;;;;14.75;81.01;99516.66;4986148;28;20506;-91
2021/09/14 01:38:28;;;;;;;7.13;6.63;;;;;;;14.70;80.71;99508.50;4986602;28;20240;-87
2021/09/14 01:41:05;;;;;;;7.20;6.60;;;;;;;14.71;81.28;99512.81;5001895;28;20239;-85
2021/09/14 01:43:41;;;;;;;7.47;6.87;;;;;;;14.76;81.05;99523.69;5016990;28;20235;-83
2021/09/14 01:46:14;;;;;;;7.80;7.10;;;;;;;14.64;81.47;99524.88;5018341;28;20241;-89
2021/09/14 01:48:55;;;;;;;7.10;6.50;;;;;;;14.63;81.67;99523.22;5005754;28;20289;-94
2021/09/14 01:51:27;;;;;;;7.50;6.90;;;;;;;14.61;81.74;99517.25;5001218;28;20296;-87
2021/09/14 01:53:58;;;;;;;7.20;6.60;;;;;;;14.54;81.94;99501.28;5001076;28;20283;-81
2021/09/14 01:56:35;;;;;;;7.03;6.43;;;;;;;14.56;81.75;99509.13;5001811;28;20261;-88
2021/09/14 01:59:07;;;;;;;7.60;7.00;;;;;;;14.47;81.84;99492.53;5001863;28;20253;-85
2021/09/14 02:01:52;;;;;;;8.03;7.33;;;;;;;14.51;82.21;99512.56;4985725;28;20695;-84
2021/09/14 02:04:51;;;;;;;7.77;7.03;;;;;;;14.50;82.32;99502.84;4985941;28;20707;-83
2021/09/14 02:30:16;;;;;;;7.80;7.20;;;;;;;14.40;82.64;99516.16;5003021;28;20641;-93
2021/09/14 02:38:54;;;;;;;7.87;7.17;;;;;;;14.40;82.67;99518.84;5001530;28;20549;-83
2021/09/14 02:45:00;;;;;;;8.30;7.60;;;;;;;14.37;82.50;99519.34;5001229;28;20320;-84
2021/09/14 02:58:51;;;;;;;7.60;7.00;;;;;;;14.18;83.04;99520.66;5015671;28;20235;-85
2021/09/14 03:01:24;;;;;;;8.23;7.53;;;;;;;14.16;82.53;99518.19;5015556;28;20237;-88
2021/09/14 03:03:59;;;;;;;8.30;7.57;;;;;;;14.22;82.29;99513.69;4984357;28;20702;-83
2021/09/14 03:06:34;;;;;;;7.93;7.33;;;;;;;14.06;82.56;99510.75;5015303;28;20230;-93
2021/09/14 03:09:22;;;;;;;8.20;7.50;;;;;;;14.03;83.13;99513.94;5000603;28;20239;-84
2021/09/14 03:11:53;;;;;;;8.07;7.43;;;;;;;14.00;83.32;99511.72;4984324;28;20224;-87
2021/09/14 03:14:21;;;;;;;7.97;7.27;;;;;;;13.96;83.11;99515.97;4998814;28;20240;-84
2021/09/14 03:16:54;;;;;;;8.10;7.40;;;;;;;14.00;83.21;99518.97;4999285;28;20251;-80
2021/09/14 03:19:27;;;;;;;7.93;7.23;;;;;;;13.98;83.07;99516.56;4983439;28;20233;-87
2021/09/14 03:22:07;;;;;;;7.67;7.07;;;;;;;14.03;83.13;99521.22;4999988;28;20235;-82
2021/09/14 03:24:42;;;;;;;8.30;7.57;;;;;;;13.96;83.13;99524.06;4999408;28;20238;-82
2021/09/14 03:27:14;;;;;;;7.73;7.03;;;;;;;14.01;83.27;99524.13;5016093;28;20588;-82
2021/09/14 03:29:50;;;;;;;8.00;7.30;;;;;;;14.02;83.32;99517.69;5015335;28;20643;-84
2021/09/14 03:32:20;;;;;;;8.40;7.67;;;;;;;13.98;83.33;99511.16;4998647;28;20579;-87
2021/09/14 03:34:55;;;;;;;8.27;7.60;;;;;;;14.02;83.37;99528.47;5014847;28;20235;-85
2021/09/14 03:37:31;;;;;;;8.57;7.67;;;;;;;13.97;83.62;99517.59;5016047;28;20224;-90
2021/09/14 03:40:06;;;;;;;8.43;7.73;;;;;;;13.96;83.42;99521.34;5014771;28;20237;-87
2021/09/14 03:42:42;;;;;;;7.67;7.07;;;;;;;14.01;83.33;99534.09;4999265;28;20220;-84
2021/09/14 03:45:13;;;;;;;8.60;7.70;;;;;;;13.98;83.39;99534.59;5015008;28;20254;-87
2021/09/14 03:47:47;;;;;;;8.20;7.40;;;;;;;13.95;83.41;99525.09;5014569;28;20247;-90
2021/09/14 03:50:22;;;;;;;7.70;7.10;;;;;;;13.85;83.25;99516.88;4998638;28;20597;-91
2021/09/14 03:52:58;;;;;;;8.13;7.43;;;;;;;13.92;83.16;99525.59;5014806;28;20227;-87
2021/09/14 03:55:28;;;;;;;8.30;7.60;;;;;;;13.95;83.25;99545.84;5014823;28;20239;-85
2021/09/14 03:58:15;;;;;;;7.90;7.03;;;;;;;13.89;83.29;99538.75;5000462;28;20282;-80
2021/09/14 04:00:53;;;;;;;8.70;7.77;;;;;;;13.84;83.25;99534.09;5014434;28;20235;-82
2021/09/14 04:06:58;;;;;;;8.30;7.60;;;;;;;13.83;83.20;99543.22;4999068;28;20227;-88
2021/09/14 04:09:23;;;;;;;8.00;7.40;;;;;;;13.76;83.35;99536.38;5002173;28;20235;-88
2021/09/14 04:12:08;;;;;;;8.13;7.43;;;;;;;13.73;83.59;99528.75;5013463;28;20223;-81
2021/09/14 04:14:46;;;;;;;7.90;7.30;;;;;;;13.73;83.20;99531.44;4999064;28;20236;-89
2021/09/14 04:17:16;;;;;;;8.13;7.47;;;;;;;13.74;83.60;99541.97;5015559;28;20635;-82
2021/09/14 04:19:47;;;;;;;8.73;8.03;;;;;;;13.69;83.03;99533.81;5009397;28;20234;-84
2021/09/14 04:22:18;;;;;;;8.10;7.30;;;;;;;13.72;83.51;99532.53;5008560;28;20252;-88
2021/09/14 04:24:51;;;;;;;8.47;7.77;;;;;;;13.71;83.77;99534.41;5030740;28;20630;-85
2021/09/14 04:27:26;;;;;;;8.80;7.80;;;;;;;13.76;83.75;99541.75;5009670;28;20229;-84
2021/09/14 04:30:02;;;;;;;8.27;7.50;;;;;;;13.77;83.30;99549.56;5033681;28;20218;-83
2021/09/14 04:32:36;;;;;;;8.27;7.57;;;;;;;13.83;83.63;99550.47;4998696;28;20227;-85
2021/09/14 04:35:11;;;;;;;8.03;7.23;;;;;;;13.79;83.40;99546.63;4998297;28;20356;-88
2021/09/14 04:37:49;;;;;;;7.73;6.93;;;;;;;13.84;83.37;99552.94;4998642;28;20231;-83
2021/09/14 04:40:20;;;;;;;8.10;7.40;;;;;;;13.79;83.28;99543.94;5013416;28;20227;-79
2021/09/14 04:42:55;;;;;;;8.13;7.43;;;;;;;13.84;83.56;99561.03;4998031;28;20245;-84
2021/09/14 04:45:28;;;;;;;8.37;7.47;;;;;;;13.87;83.04;99557.81;4998081;28;20236;-79
2021/09/14 04:48:07;;;;;;;8.23;7.50;;;;;;;13.94;83.47;99558.50;4983293;28;20249;-83
2021/09/14 04:50:39;;;;;;;8.50;7.70;;;;;;;13.96;83.09;99564.44;4986745;28;20336;-83
2021/09/14 04:53:19;;;;;;;8.20;7.40;;;;;;;13.96;83.11;99558.25;4988878;28;20215;-79
2021/09/14 04:55:58;;;;;;;8.53;7.73;;;;;;;14.04;82.85;99563.25;5021008;28;20270;-87
2021/09/14 04:58:34;;;;;;;8.57;7.80;;;;;;;14.09;82.90;99566.81;5021600;28;20230;-88
2021/09/14 05:01:08;;;;;;;8.07;7.43;;;;;;;14.17;82.59;99568.31;5030452;28;20227;-84
2021/09/14 05:03:47;;;;;;;8.40;7.60;;;;;;;14.22;82.56;99563.03;5021592;28;20716;-80
2021/09/14 05:06:19;;;;;;;7.97;7.37;;;;;;;14.31;82.12;99563.41;5019527;28;20227;-88
2021/09/14 05:08:52;;;;;;;8.30;7.60;;;;;;;14.37;82.19;99565.19;5016841;28;20221;-82
2021/09/14 05:11:22;;;;;;;8.60;7.73;;;;;;;14.42;82.05;99546.34;5021475;28;20240;-88
2021/09/14 05:13:50;;;;;;;8.57;7.77;;;;;;;14.53;81.42;99559.75;5005242;28;20285;-82
2021/09/14 05:16:22;;;;;;;7.90;7.20;;;;;;;14.64;81.53;99560.75;5021031;28;20239;-86
2021/09/14 05:19:29;;;;;;;8.77;7.87;;;;;;;14.76;81.20;99568.72;5024980;28;20236;-85
2021/09/14 05:22:06;;;;;;;8.47;7.70;;;;;;;14.81;80.91;99568.78;5021752;28;20655;-91
2021/09/14 05:24:43;;;;;;;8.83;8.03;;;;;;;14.88;80.94;99572.13;5037474;28;20225;-83
2021/09/14 05:27:19;;;;;;;8.73;7.80;;;;;;;14.98;80.41;99570.38;5022466;28;20242;-92
2021/09/14 05:29:48;;;;;;;8.53;7.83;;;;;;;15.10;80.00;99562.16;5037482;28;20249;-84
2021/09/14 05:32:29;;;;;;;8.37;7.67;;;;;;;15.33;79.44;99566.50;5036273;28;20293;-87
2021/09/14 05:35:02;;;;;;;9.00;8.20;;;;;;;15.49;78.64;99572.91;5018680;28;20225;-83
2021/09/14 05:37:31;;;;;;;8.77;7.97;;;;;;;15.52;78.68;99564.31;5010448;28;20224;-81
2021/09/14 05:40:01;;;;;;;7.87;7.27;;;;;;;15.63;78.39;99564.16;5003752;28;20525;-82
2021/09/14 05:42:34;;;;;;;8.33;7.57;;;;;;;15.67;78.09;99559.09;5020908;28;20305;-81
2021/09/14 05:45:05;;;;;;;8.13;7.47;;;;;;;15.77;78.00;99570.00;4992649;28;20250;-85
2021/09/14 05:47:35;;;;;;;8.50;7.70;;;;;;;15.79;77.42;99565.97;5000644;28;20255;-89
2021/09/14 05:50:07;;;;;;;8.27;7.50;;;;;;;15.93;77.28;99571.78;5001621;28;20231;-82
2021/09/14 05:52:37;;;;;;;8.73;7.93;;;;;;;15.98;77.27;99571.00;5036785;28;20222;-88
2021/09/14 05:55:08;;;;;;;8.20;7.50;;;;;;;16.09;76.95;99570.84;5020144;28;20228;-83
2021/09/14 05:57:35;;;;;;;7.63;6.93;;;;;;;16.19;76.65;99565.50;5036475;28;20664;-87
2021/09/14 06:00:03;;;;;;;8.20;7.50;;;;;;;16.34;76.15;99566.72;5019103;28;20235;-81
2021/09/14 06:02:39;;;;;;;8.60;7.70;;;;;;;16.40;75.80;99558.38;5021159;28;20249;-83
2021/09/14 06:05:12;;;;;;;7.77;7.07;;;;;;;16.52;75.68;99555.50;5020712;28;20277;-93
2021/09/14 06:07:41;;;;;;;7.63;7.03;;;;;;;16.70;74.96;99571.34;5007775;28;20318;-86
2021/09/14 06:10:13;;;;;;;7.83;7.13;;;;;;;16.86;74.67;99572.25;5026738;28;20301;-83
2021/09/14 06:13:01;;;;;;;8.03;7.27;;;;;;;17.09;73.86;99578.06;5022264;28;20226;-83
2021/09/14 06:15:35;;;;;;;8.03;7.33;;;;;;;17.31;73.33;99571.69;5020752;28;20317;-88
2021/09/14 06:18:10;;;;;;;7.93;7.33;;;;;;;17.53;72.93;99575.00;5019815;28;20236;-90
2021/09/14 06:20:45;;;;;;;8.77;7.97;;;;;;;17.74;72.17;99582.13;5020411;28;20308;-84
2021/09/14 06:23:17;;;;;;;8.20;7.50;;;;;;;17.92;71.50;99586.22;5020626;28;20534;-83
2021/09/14 06:25:50;;;;;;;8.57;7.67;;;;;;;18.00;71.18;99581.09;5004752;28;20238;-81
2021/09/14 06:28:22;;;;;;;8.57;7.70;;;;;;;18.19;70.77;99580.59;5019722;28;20638;-88
2021/09/14 06:30:51;;;;;;;9.50;8.70;;;;;;;18.36;70.55;99592.78;5019879;28;20323;-89
2021/09/14 06:33:23;;;;;;;9.57;8.67;;;;;;;18.49;70.24;99594.94;5020218;28;20230;-85
2021/09/14 06:35:54;;;;;;;9.60;8.70;;;;;;;18.59;70.40;99598.78;5019800;28;20749;-85
2021/09/14 06:38:34;;;;;;;11.10;10.07;;;;;;;18.77;69.30;99599.03;5035387;28;20222;-92
2021/09/14 06:41:02;;;;;;;11.47;10.47;;;;;;;18.79;69.36;99591.44;5035212;28;20270;-86
2021/09/14 06:43:36;;;;;;;11.27;10.30;;;;;;;18.95;70.02;99588.66;5017119;28;20229;-83
2021/09/14 06:46:12;;;;;;;12.47;11.37;;;;;;;19.05;68.47;99594.06;5018823;28;20229;-86
2021/09/14 06:49:03;;;;;;;12.83;11.60;;;;;;;19.25;68.42;99588.59;5021923;28;20249;-83
2021/09/14 06:51:34;;;;;;;13.77;11.73;;;;;;;19.42;68.31;99599.09;5019784;28;20230;-84
2021/09/14 06:54:01;;;;;;;13.43;12.33;;;;;;;19.52;67.97;99591.75;5035537;28;20341;-85
2021/09/14 06:56:28;;;;;;;12.80;11.63;;;;;;;19.56;67.97;99587.41;5019044;28;20257;-86
2021/09/14 06:58:55;;;;;;;13.70;12.40;;;;;;;19.79;67.15;99597.59;5019022;28;20230;-88
2021/09/14 07:01:22;;;;;;;15.50;12.83;;;;;;;19.52;67.38;99594.47;5018713;28;20229;-87
2021/09/14 07:03:50;;;;;;;14.50;13.07;;;;;;;19.66;67.17;99591.97;5019344;28;20232;-88
2021/09/14 07:06:17;;;;;;;14.23;12.83;;;;;;;19.64;67.36;99594.94;5035003;28;20280;-88
2021/09/14 07:08:44;;;;;;;15.57;13.10;;;;;;;19.71;67.20;99597.38;5035408;28;20227;-82
2021/09/14 07:11:11;;;;;;;15.37;12.87;;;;;;;19.78;66.60;99592.47;5035128;28;20295;-84
2021/09/14 07:13:38;;;;;;;16.67;12.77;;;;;;;19.74;67.02;99592.19;5018215;28;20237;-85
2021/09/14 07:16:05;;;;;;;13.57;12.27;;;;;;;19.82;66.73;99592.72;5034752;28;20716;-86
2021/09/14 07:18:32;;;;;;;15.37;12.30;;;;;;;20.08;65.66;99603.13;5035216;28;20235;-87
2021/09/14 07:20:59;;;;;;;13.03;11.80;;;;;;;20.13;65.83;99594.94;5036096;28;20230;-83
2021/09/14 07:23:26;;;;;;;13.80;12.40;;;;;;;20.27;65.82;99599.72;5035095;28;20242;-82
2021/09/14 07:25:53;;;;;;;14.27;11.80;;;;;;;20.47;64.70;99597.72;5035177;28;20236;-86
2021/09/14 07:28:20;;;;;;;15.33;12.40;;;;;;;20.54;64.31;99598.19;5034678;28;20243;-86
2021/09/14 07:30:47;;;;;;;13.23;11.80;;;;;;;20.69;64.08;99588.25;5035869;28;20680;-85
2021/09/14 07:33:15;;;;;;;13.10;11.87;;;;;;;20.81;64.12;99594.94;5034904;28;20228;-89
2021/09/14 07:35:44;;;;;;;14.40;12.90;;;;;;;20.71;63.11;99596.97;5002880;28;20676;-85
2021/09/14 07:38:12;;;;;;;13.10;11.83;;;;;;;20.85;62.90;99592.47;5001523;28;20234;-89
2021/09/14 07:40:38;;;;;;;13.57;12.37;;;;;;;21.04;63.49;99596.88;5018316;28;20345;-82
2021/09/14 07:43:05;;;;;;;14.47;13.00;;;;;;;21.08;62.87;99595.22;5001868;28;20244;-86
2021/09/14 07:45:33;;;;;;;16.00;12.57;;;;;;;20.97;62.89;99587.44;5018167;28;20644;-84
2021/09/14 07:48:00;;;;;;;13.87;12.63;;;;;;;21.25;62.42;99588.50;5018160;28;20250;-82
2021/09/14 07:50:27;;;;;;;13.97;12.60;;;;;;;21.35;62.26;99596.56;5017739;28;20266;-82
2021/09/14 07:52:54;;;;;;;16.20;13.03;;;;;;;21.60;61.55;99595.44;5017845;28;20237;-83
2021/09/14 07:55:21;;;;;;;14.30;12.97;;;;;;;21.60;61.15;99598.97;5018242;28;20236;-82
2021/09/14 07:57:48;;;;;;;14.23;12.70;;;;;;;21.44;61.76;99590.19;5018282;28;20670;-89
2021/09/14 08:00:18;;;;;;;14.60;13.07;;;;;;;21.66;61.42;99586.06;5017632;28;20236;-85
2021/09/14 08:02:56;;;;;;;14.63;13.10;;;;;;;21.74;60.96;99588.16;5018588;28;20516;-85
2021/09/14 08:05:24;;;;;;;14.40;12.80;;;;;;;21.82;60.40;99588.31;5034359;28;20414;-82
2021/09/14 08:07:52;;;;;;;14.03;12.73;;;;;;;21.85;60.68;99597.81;5034014;28;20236;-86
2021/09/14 08:10:19;;;;;;;14.57;13.27;;;;;;;21.75;60.71;99578.84;5017451;28;20233;-84
2021/09/14 08:12:46;;;;;;;14.63;13.20;;;;;;;21.97;60.19;99592.78;5017947;28;20233;-84
2021/09/14 08:15:13;;;;;;;14.20;12.90;;;;;;;22.09;58.88;99595.84;5017348;28;20288;-86
2021/09/14 08:17:41;;;;;;;14.90;13.53;;;;;;;21.73;60.67;99592.00;5017722;28;20705;-88
2021/09/14 08:20:08;;;;;;;14.67;13.27;;;;;;;21.78;61.41;99589.19;5001149;28;20236;-82
2021/09/14 08:22:35;;;;;;;14.13;12.83;;;;;;;22.03;60.42;99594.31;5017592;28;20654;-89
2021/09/14 08:25:03;;;;;;;15.23;12.80;;;;;;;22.21;59.56;99598.16;5033332;28;20235;-88
2021/09/14 08:27:29;;;;;;;14.53;13.13;;;;;;;22.08;59.83;99601.59;5017733;28;20234;-83
2021/09/14 08:30:02;;;;;;;15.17;13.67;;;;;;;22.27;58.99;99605.13;5033633;28;20271;-83
2021/09/14 08:32:29;;;;;;;14.50;13.10;;;;;;;22.41;58.57;99597.81;5034012;28;20225;-86
2021/09/14 08:34:56;;;;;;;13.90;12.60;;;;;;;22.65;58.19;99601.22;5033720;28;20505;-86
2021/09/14 08:37:24;;;;;;;14.20;12.83;;;;;;;22.67;56.96;99590.81;5017730;28;20311;-88
2021/09/14 08:39:52;;;;;;;14.00;12.80;;;;;;;22.86;56.81;99601.72;5017747;28;20248;-84
2021/09/14 08:42:21;;;;;;;13.47;12.17;;;;;;;22.91;56.56;99585.19;5000730;28;20651;-82
2021/09/14 08:44:48;;;;;;;12.60;11.43;;;;;;;23.09;56.31;99583.53;5001378;28;20239;-82
2021/09/14 08:47:16;;;;;;;12.67;11.57;;;;;;;23.27;55.63;99586.16;5017153;28;20722;-85
2021/09/14 08:49:44;;;;;;;12.93;11.53;;;;;;;23.45;55.40;99592.66;5034026;28;20240;-85
2021/09/14 08:52:16;;;;;;;12.47;11.30;;;;;;;23.56;54.71;99576.84;5034384;28;20249;-86
2021/09/14 08:54:45;;;;;;;12.40;11.05;;;;;;;23.67;54.78;99568.09;5033873;28;20300;-84
2021/09/14 08:57:18;;;;;;;12.65;11.65;;;;;;;23.84;53.46;99574.88;5017575;28;20230;-85
2021/09/14 08:59:47;;;;;;;12.57;11.30;;;;;;;23.88;52.94;99571.22;5033877;28;20229;-81
2021/09/14 09:02:21;;;;;;;12.48;11.20;;;;;;;24.09;52.77;99577.00;5033295;28;20253;-84
2021/09/14 09:05:04;;;;;;;12.88;11.45;;;;;;;24.11;52.93;99578.34;5033653;28;20271;-85
2021/09/14 09:07:36;;;;;;;11.93;10.82;;;;;;;24.22;52.86;99565.22;5033650;28;20237;-84
2021/09/14 09:10:17;;;;;;;11.57;10.57;;;;;;;24.31;52.94;99573.53;5033644;28;20676;-82
2021/09/14 09:12:49;;;;;;;15.52;10.32;;;;;;;24.40;52.10;99572.44;5017806;28;20591;-86
2021/09/14 09:15:29;;;;;;;10.85;9.35;;;;;;;24.46;51.80;99560.25;5033770;28;20312;-88
2021/09/14 09:18:07;;;;;;;11.60;9.77;;;;;;;24.58;51.33;99567.09;5033805;28;20279;-84
2021/09/14 09:20:41;;;;;;;10.82;9.75;;;;;;;24.66;51.20;99560.84;5033149;28;20692;-81
2021/09/14 09:23:21;;;;;;;10.43;9.43;;;;;;;24.71;50.91;99563.44;5033392;28;20729;-84
2021/09/14 09:25:50;;;;;;;12.10;9.68;;;;;;;24.88;50.50;99549.84;5017245;28;20234;-84
2021/09/14 09:28:21;;;;;;;12.90;9.77;;;;;;;24.97;50.36;99553.44;5033151;28;20231;-86
2021/09/14 09:30:54;;;;;;;10.65;9.60;;;;;;;25.17;50.13;99555.63;5017170;28;20229;-84
2021/09/14 09:33:27;;;;;;;12.32;10.55;;;;;;;25.32;49.39;99546.16;5017645;28;20325;-84
2021/09/14 09:36:04;;;;;;;10.55;9.45;;;;;;;25.43;48.78;99545.53;5035651;28;20230;-81
2021/09/14 09:38:31;;;;;;;11.73;9.60;;;;;;;25.44;49.12;99549.06;5020544;28;20234;-81
2021/09/14 09:40:58;;;;;;;10.95;9.93;;;;;;;25.50;48.60;99544.25;5038021;28;20223;-86
2021/09/14 09:43:30;;;;;;;10.65;9.60;;;;;;;25.69;47.92;99544.81;5020552;28;20225;-88
2021/09/14 09:46:09;;;;;;;9.63;8.82;;;;;;;25.77;48.00;99541.25;5020521;28;20230;-84
2021/09/14 09:48:37;;;;;;;10.05;9.10;;;;;;;25.90;48.45;99545.78;5036452;28;20227;-89
2021/09/14 09:51:05;;;;;;;10.45;9.55;;;;;;;25.94;48.96;99544.03;5020443;28;20278;-86
2021/09/14 09:53:34;;;;;;;10.30;9.40;;;;;;;26.02;48.93;99536.91;5020346;28;20238;-82
2021/09/14 09:56:02;;;;;;;10.25;9.38;;;;;;;26.18;47.34;99547.06;5003870;28;20260;-83
2021/09/14 09:58:29;;;;;;;9.13;8.38;;;;;;;26.56;46.86;99535.38;5020447;28;20299;-83
2021/09/14 10:01:15;;;;;;;11.07;9.98;;;;;;;26.56;46.02;99541.69;5004428;28;20627;-84
2021/09/14 10:04:08;;;;;;;10.00;9.07;;;;;;;26.47;46.48;99543.66;5036840;28;20233;-91
2021/09/14 10:06:41;;;;;;;9.70;8.77;;;;;;;26.71;46.21;99545.84;5037195;28;20529;-91
2021/09/14 10:09:10;;;;;;;9.43;8.52;;;;;;;26.65;45.57;99528.72;5036461;28;20241;-85
2021/09/14 10:11:40;;;;;;;10.30;8.73;;;;;;;26.93;45.39;99528.34;5020114;28;20254;-88
2021/09/14 10:14:15;;;;;;;10.18;9.18;;;;;;;26.82;45.15;99540.81;5019823;28;20323;-82
2021/09/14 10:16:49;;;;;;;9.35;8.52;;;;;;;27.02;44.55;99529.09;5010985;28;20229;-84
2021/09/14 10:19:26;;;;;;;9.00;8.20;;;;;;;27.02;44.73;99531.84;5035915;28;20555;-81
2021/09/14 10:22:02;;;;;;;9.38;8.63;;;;;;;27.11;43.83;99529.88;5020867;28;20319;-82
2021/09/14 10:24:35;;;;;;;9.48;8.45;;;;;;;27.00;43.90;99517.66;5019820;28;20251;-84
2021/09/14 10:27:12;;;;;;;9.35;8.55;;;;;;;26.94;44.72;99508.78;5020377;28;20235;-82
2021/09/14 10:29:43;;;;;;;8.77;7.97;;;;;;;27.00;44.39;99523.94;5020610;28;20232;-81
2021/09/14 10:32:14;;;;;;;8.25;7.55;;;;;;;27.30;43.77;99515.69;5019132;28;20229;-82
2021/09/14 10:34:56;;;;;;;9.23;8.32;;;;;;;27.43;43.49;99518.22;5019271;28;20247;-82
2021/09/14 10:37:31;;;;;;;8.52;7.75;;;;;;;27.54;42.36;99508.44;5035594;28;20540;-81
2021/09/14 10:40:16;;;;;;;8.70;7.90;;;;;;;27.65;43.14;99508.84;5036727;28;20230;-88
2021/09/14 10:42:49;;;;;;;8.10;7.40;;;;;;;27.58;43.31;99494.81;5020239;28;20648;-85
2021/09/14 10:45:20;;;;;;;8.23;7.43;;;;;;;27.55;43.17;99495.50;5018647;28;20233;-84
2021/09/14 10:47:52;;;;;;;8.00;7.25;;;;;;;27.76;43.10;99487.25;5035129;28;20297;-87
2021/09/14 10:50:32;;;;;;;7.55;6.93;;;;;;;27.89;41.46;99489.72;5019369;28;20280;-84
2021/09/14 10:53:04;;;;;;;8.57;7.22;;;;;;;28.08;40.83;99491.16;5020262;28;20320;-85
2021/09/14 10:55:37;;;;;;;7.70;6.65;;;;;;;28.20;41.75;99481.03;5019585;28;20601;-87
2021/09/14 10:58:16;;;;;;;10.52;7.18;;;;;;;28.28;41.60;99477.38;5019901;28;20504;-90
2021/09/14 11:00:49;;;;;;;7.57;6.88;;;;;;;27.82;42.30;99483.94;4999866;28;20305;-86
2021/09/14 11:03:19;;;;;;;8.52;6.93;;;;;;;27.94;40.98;99483.19;4999550;28;20561;-89
2021/09/14 11:05:53;;;;;;;7.53;6.75;;;;;;;28.29;40.84;99480.94;5032009;28;20319;-85
2021/09/14 11:08:26;;;;;;;6.60;6.10;;;;;;;28.31;42.11;99484.97;5015895;28;20254;-86
2021/09/14 11:10:59;;;;;;;6.35;5.75;;;;;;;28.51;40.07;99472.25;4999760;28;20226;-81
2021/09/14 11:13:30;;;;;;;6.03;5.53;;;;;;;28.64;39.32;99462.88;5015265;28;20253;-84
2021/09/14 11:16:04;;;;;;;5.97;5.47;;;;;;;28.69;39.34;99465.41;5000397;28;20226;-85
2021/09/14 11:18:36;;;;;;;5.85;5.35;;;;;;;28.96;39.10;99477.72;5030034;28;20222;-91
2021/09/14 11:21:12;;;;;;;6.20;5.70;;;;;;;29.08;38.35;99472.19;5016378;28;20235;-84
2021/09/14 11:23:44;;;;;;;8.40;5.70;;;;;;;29.30;38.25;99470.94;5015150;28;20245;-89
2021/09/14 11:26:17;;;;;;;6.35;5.80;;;;;;;29.47;37.93;99469.88;5015191;28;20226;-90
2021/09/14 11:28:55;;;;;;;6.85;6.20;;;;;;;29.53;37.59;99471.25;4999535;28;20234;-86
2021/09/14 11:31:26;;;;;;;4.85;4.45;;;;;;;29.64;37.94;99462.09;5014934;28;20234;-82
2021/09/14 11:33:54;;;;;;;6.85;5.80;;;;;;;29.28;38.92;99457.47;4982804;28;20235;-89
2021/09/14 11:36:22;;;;;;;6.25;5.68;;;;;;;29.72;38.88;99469.44;5014855;28;20282;-82
2021/09/14 11:39:03;;;;;;;6.32;5.72;;;;;;;29.88;37.75;99460.41;4998634;28;20227;-82
2021/09/14 11:41:34;;;;;;;5.72;5.22;;;;;;;30.13;38.11;99451.69;5015013;28;20309;-87
2021/09/14 11:44:04;;;;;;;6.95;5.82;;;;;;;30.34;37.13;99465.25;5017798;28;20573;-84
2021/09/14 11:46:34;;;;;;;5.63;5.10;;;;;;;30.20;38.36;99451.06;5034032;28;20233;-82
2021/09/14 11:49:05;;;;;;;6.65;5.55;;;;;;;30.30;38.20;99456.09;5035288;28;20279;-82
2021/09/14 11:51:39;;;;;;;6.72;6.05;;;;;;;30.37;37.72;99444.44;5017727;28;20301;-87
2021/09/14 11:54:13;;;;;;;6.53;5.90;;;;;;;30.43;37.88;99449.31;5013931;28;20226;-83
2021/09/14 11:56:55;;;;;;;6.28;5.78;;;;;;;30.53;37.13;99442.50;4998914;28;20261;-82
2021/09/14 11:59:23;;;;;;;6.57;6.07;;;;;;;30.56;37.41;99441.78;5013774;28;20511;-85
2021/09/14 12:01:52;;;;;;;7.03;6.00;;;;;;;30.47;37.28;99432.88;5015504;28;20239;-88
2021/09/14 12:04:20;;;;;;;6.13;5.60;;;;;;;30.59;37.46;99444.63;4997765;28;20273;-84
2021/09/14 12:06:56;;;;;;;6.43;5.90;;;;;;;30.87;37.06;99449.25;5014646;28;20242;-90
2021/09/14 12:09:29;;;;;;;6.18;5.65;;;;;;;31.26;35.74;99433.59;5014860;28;20598;-83
2021/09/14 12:12:07;;;;;;;6.57;5.88;;;;;;;31.51;35.77;99434.13;4999140;28;20233;-85
2021/09/14 12:14:43;;;;;;;6.82;6.32;;;;;;;31.61;34.64;99428.03;5014220;28;20227;-83
2021/09/14 12:17:13;;;;;;;6.75;6.25;;;;;;;31.53;34.98;99423.50;5014348;28;20255;-84
2021/09/14 12:19:50;;;;;;;6.70;6.13;;;;;;;31.58;35.39;99418.50;4998544;28;20310;-82
2021/09/14 12:22:26;;;;;;;6.85;6.25;;;;;;;31.58;35.66;99429.56;5000069;28;20265;-82
2021/09/14 12:24:55;;;;;;;6.60;5.97;;;;;;;31.59;35.43;99420.06;5014491;28;20573;-83
2021/09/14 12:27:23;;;;;;;6.78;6.13;;;;;;;31.56;35.91;99415.28;4998104;28;20590;-85
2021/09/14 12:29:56;;;;;;;6.45;5.95;;;;;;;31.63;35.71;99417.41;5014386;28;20292;-86
2021/09/14 12:32:26;;;;;;;6.80;5.90;;;;;;;31.54;35.62;99405.72;5013931;28;20231;-85
2021/09/14 12:34:56;;;;;;;6.97;6.13;;;;;;;31.67;34.60;99410.78;5015141;28;20284;-83
2021/09/14 12:37:26;;;;;;;6.90;6.07;;;;;;;31.65;35.12;99409.53;4998533;28;20302;-87
2021/09/14 12:39:57;;;;;;;6.60;6.10;;;;;;;31.66;35.65;99400.84;5014207;28;20231;-83
2021/09/14 12:42:27;;;;;;;6.65;6.05;;;;;;;31.37;35.68;99393.09;5013884;28;20626;-82